Airfield :
LOGIN :

Register | Disclaimer

   EN    FR    IT 

 










Legend :    VFR   Marginal VFR   IFR   Intensive IFR   Very Intensive IFR
Visi :
Ceiling :
>= 8 km
>= 3000ft
5 to 8 km
1000 to 3000 ft
1500m to 5 km
500 to 1000 ft
800 to 1500m
200 to 500 ft
< 800m
< 200 ft
Symbols :   Thunderstorms  Fog  Heavy snow  Heavy precipitations  Wind > 20 kt
SIGMETs :     Misc.  Thunderstorms  Icing  Turbulence  Mountain Waves  Volcanic Ashes






- Airport Elevation : 479 ft
- IATA code : DOL


LFRG - Deauville

CURRENT METAR :
  • 190930Z AUTO 20010KT 9999 BKN012 BKN200 BKN220 11/09 Q1004 TEMPO 4000 SHRA BKN020CB

EXPIRED METARs :
  • 190900Z AUTO 21009KT 9999 BKN013 BKN150 11/09 Q1004 TEMPO 4000 SHRA BKN020CB
  • 190830Z AUTO 20010KT 170V240 9999 FEW014 BKN160 11/09 Q1004 TEMPO 4000 SHRA BKN020CB
  • 190800Z AUTO 21008KT CAVOK 10/09 Q1004 NOSIG
  • 190730Z AUTO 21009KT CAVOK 10/09 Q1003 NOSIG
  • 190700Z AUTO 21009KT CAVOK 10/09 Q1003 TEMPO BKN008

TAF TAF LFRG
Valid from the 19 at 09:00 until the 19 at 18:00 UTC


190800Z 1909/1918 21010KT 9999 SCT020
TEMPO 1910/1918 5000 SHRA BKN020TCU
PROB30
TEMPO 1910/1916 4000 SHRA BKN020CB
BECMG 1916/1918 VRB03KT
ATIS : +33 2 31 65 65 36



MET'MAP, your aeronautical weather chart ! - Copyright ORBIFLY December 2007 - Disclaimer

ORBIFLY MET'MAP TEAM :

Programming & Development : Alexandra Zaïnal
Concept & Development : Baudouin d'Aumeries
Co-Development & Prog : Marc-Olivier Méhu
Technical & hardware support : Manuel Goepfert

Contact : metmap@orbifly.com




SOURCES & CREDITS :

   NOAA